createdAt,value
2023-03-20T00:01:25.233Z,15.69
2023-03-20T00:02:22.190Z,15.72
2023-03-20T00:03:22.477Z,15.71
2023-03-20T00:04:22.138Z,15.75
2023-03-20T00:05:22.336Z,15.75
2023-03-20T00:06:21.762Z,15.72
2023-03-20T00:07:21.815Z,15.73
2023-03-20T00:08:21.897Z,15.75
2023-03-20T00:09:22.113Z,15.77
2023-03-20T00:10:22.229Z,15.72
2023-03-20T00:11:21.833Z,15.76
2023-03-20T00:12:21.843Z,15.77
2023-03-20T00:13:21.746Z,15.75
2023-03-20T00:14:21.543Z,15.78
2023-03-20T00:15:22.348Z,15.77
2023-03-20T00:16:22.416Z,15.80
2023-03-20T00:17:22.105Z,15.82
2023-03-20T00:18:22.237Z,15.84
2023-03-20T00:19:22.447Z,15.80
2023-03-20T00:20:22.732Z,15.80
2023-03-20T00:21:21.606Z,15.79
2023-03-20T00:22:21.794Z,15.76
2023-03-20T00:23:22.067Z,15.77
2023-03-20T00:24:21.957Z,15.79
2023-03-20T00:25:22.005Z,15.80
2023-03-20T00:26:22.203Z,15.82
2023-03-20T00:27:22.204Z,15.81
2023-03-20T00:28:22.085Z,15.78
2023-03-20T00:29:22.118Z,15.74
2023-03-20T00:30:22.365Z,15.68
2023-03-20T00:31:22.928Z,15.70
2023-03-20T00:32:22.175Z,15.71
2023-03-20T00:33:21.851Z,15.72
2023-03-20T00:34:21.963Z,15.71
2023-03-20T00:35:22.735Z,15.69
2023-03-20T00:36:22.856Z,15.70
2023-03-20T00:37:21.759Z,15.68
2023-03-20T00:38:21.886Z,15.64
2023-03-20T00:39:21.932Z,15.67
2023-03-20T00:40:22.158Z,15.57
2023-03-20T00:41:22.181Z,15.56
2023-03-20T00:42:21.882Z,15.55
2023-03-20T00:43:21.784Z,15.55
2023-03-20T00:44:22.007Z,15.51
2023-03-20T00:45:22.153Z,15.49
2023-03-20T00:46:22.083Z,15.48
2023-03-20T00:47:22.985Z,15.47
2023-03-20T00:48:22.253Z,15.49
2023-03-20T00:49:21.791Z,15.51
2023-03-20T00:50:22.181Z,15.43
2023-03-20T00:51:22.124Z,15.40
2023-03-20T00:52:22.143Z,15.35
2023-03-20T00:53:21.823Z,15.35
2023-03-20T00:54:22.263Z,15.30
2023-03-20T00:55:22.224Z,15.30
2023-03-20T00:56:21.830Z,15.32
2023-03-20T00:57:21.450Z,15.34
2023-03-20T00:58:21.928Z,15.37
2023-03-20T00:59:21.896Z,15.36
2023-03-20T01:00:23.466Z,15.31
2023-03-20T01:01:24.817Z,15.32
2023-03-20T01:02:22.015Z,15.32
2023-03-20T01:03:36.028Z,15.33
2023-03-20T01:04:22.128Z,15.32
2023-03-20T01:05:22.256Z,15.33
2023-03-20T01:06:22.238Z,15.34
2023-03-20T01:07:22.300Z,15.36
2023-03-20T01:08:22.343Z,15.34
2023-03-20T01:09:22.138Z,15.28
2023-03-20T01:10:22.247Z,15.27
2023-03-20T01:11:22.512Z,15.27
2023-03-20T01:12:22.017Z,15.26
2023-03-20T01:13:21.935Z,15.28
2023-03-20T01:14:21.753Z,15.28
2023-03-20T01:15:22.424Z,15.32
2023-03-20T01:16:22.766Z,15.33
2023-03-20T01:17:21.813Z,15.34
2023-03-20T01:18:21.670Z,15.34
2023-03-20T01:19:21.874Z,15.38
2023-03-20T01:20:22.142Z,15.38
2023-03-20T01:21:21.979Z,15.35
2023-03-20T01:22:21.596Z,15.36
2023-03-20T01:23:21.759Z,15.38
2023-03-20T01:24:21.501Z,15.36
2023-03-20T01:25:21.761Z,15.36
2023-03-20T01:26:22.157Z,15.36
2023-03-20T01:27:22.155Z,15.36
2023-03-20T01:28:21.978Z,15.36
2023-03-20T01:29:21.713Z,15.37
2023-03-20T01:30:22.319Z,15.34
2023-03-20T01:31:22.621Z,15.33
2023-03-20T01:32:22.064Z,15.32
2023-03-20T01:33:22.477Z,15.32
2023-03-20T01:34:22.070Z,15.31
2023-03-20T01:35:21.888Z,15.33
2023-03-20T01:36:22.394Z,15.31
2023-03-20T01:37:22.062Z,15.31
2023-03-20T01:38:22.171Z,15.38
2023-03-20T01:39:22.556Z,15.40
2023-03-20T01:40:22.131Z,15.44
2023-03-20T01:41:22.446Z,15.47
2023-03-20T01:42:22.144Z,15.48
2023-03-20T01:43:22.082Z,15.49
2023-03-20T01:44:21.859Z,15.51
2023-03-20T01:45:22.314Z,15.54
2023-03-20T01:46:21.752Z,15.55
2023-03-20T01:47:21.941Z,15.54
2023-03-20T01:48:21.948Z,15.56
2023-03-20T01:49:22.533Z,15.57
2023-03-20T01:50:22.708Z,15.58
2023-03-20T01:51:22.404Z,15.62
2023-03-20T01:52:21.956Z,15.62
2023-03-20T01:53:22.292Z,15.67
2023-03-20T01:54:21.846Z,15.69
2023-03-20T01:55:22.018Z,15.70
2023-03-20T01:56:21.747Z,15.70
2023-03-20T01:57:21.599Z,15.72
2023-03-20T01:58:22.224Z,15.73
2023-03-20T02:00:24.319Z,15.76
2023-03-20T02:01:23.018Z,15.78
2023-03-20T02:02:21.716Z,15.78
2023-03-20T02:03:21.609Z,15.81
2023-03-20T02:04:22.645Z,15.82
2023-03-20T02:05:21.952Z,15.85
2023-03-20T02:06:21.858Z,15.84
2023-03-20T02:07:22.187Z,15.86
2023-03-20T02:08:22.020Z,15.87
2023-03-20T02:09:21.861Z,15.88
2023-03-20T02:10:22.275Z,15.88
2023-03-20T02:11:21.786Z,15.89
2023-03-20T02:12:21.523Z,15.89
2023-03-20T02:13:21.684Z,15.92
2023-03-20T02:14:20.457Z,15.90
2023-03-20T02:15:22.112Z,15.93
2023-03-20T02:16:22.103Z,15.93
2023-03-20T02:17:22.299Z,15.93
2023-03-20T02:18:21.955Z,15.93
2023-03-20T02:19:21.906Z,15.93
2023-03-20T02:20:22.212Z,15.95
2023-03-20T02:21:22.404Z,15.94
2023-03-20T02:22:22.239Z,15.95
2023-03-20T02:23:22.172Z,15.94
2023-03-20T02:24:22.421Z,15.93
2023-03-20T02:25:22.058Z,15.82
2023-03-20T02:26:22.051Z,15.81
2023-03-20T02:27:21.964Z,15.80
2023-03-20T02:28:22.076Z,15.80
2023-03-20T02:29:22.293Z,15.81
2023-03-20T02:30:22.685Z,15.81
2023-03-20T02:31:22.322Z,15.83
2023-03-20T02:32:22.323Z,15.77
2023-03-20T02:33:21.683Z,15.73
2023-03-20T02:34:22.080Z,15.69
2023-03-20T02:35:22.176Z,15.68
2023-03-20T02:36:22.577Z,15.61
2023-03-20T02:37:22.340Z,15.53
2023-03-20T02:38:22.217Z,15.55
2023-03-20T02:39:21.836Z,15.56
2023-03-20T02:40:21.796Z,15.55
2023-03-20T02:41:21.771Z,15.57
2023-03-20T02:42:21.566Z,15.60
2023-03-20T02:43:21.466Z,15.60
2023-03-20T02:44:22.044Z,15.61
2023-03-20T02:45:21.818Z,15.59
2023-03-20T02:46:22.804Z,15.60
2023-03-20T02:47:22.234Z,15.63
2023-03-20T02:48:22.109Z,15.60
2023-03-20T02:49:22.132Z,15.56
2023-03-20T02:50:22.957Z,15.56
2023-03-20T02:51:22.349Z,15.59
2023-03-20T02:52:22.364Z,15.56
2023-03-20T02:53:22.056Z,15.54
2023-03-20T02:54:21.588Z,15.51
2023-03-20T02:55:21.808Z,15.51
2023-03-20T02:56:22.362Z,15.50
2023-03-20T02:57:22.146Z,15.51
2023-03-20T02:58:21.782Z,15.51
2023-03-20T02:59:22.449Z,15.53
2023-03-20T03:00:22.431Z,15.53
2023-03-20T03:01:22.282Z,15.55
2023-03-20T03:02:21.837Z,15.52
2023-03-20T03:03:21.871Z,15.52
2023-03-20T03:04:21.983Z,15.52
2023-03-20T03:05:22.067Z,15.50
2023-03-20T03:06:22.431Z,15.5
2023-03-20T03:07:22.231Z,15.48
2023-03-20T03:08:21.841Z,15.46
2023-03-20T03:09:21.582Z,15.43
2023-03-20T03:10:21.954Z,15.42
2023-03-20T03:11:22.061Z,15.43
2023-03-20T03:12:22.096Z,15.42
2023-03-20T03:13:21.556Z,15.42
2023-03-20T03:14:22.337Z,15.40
2023-03-20T03:15:22.095Z,15.39
2023-03-20T03:16:21.741Z,15.41
2023-03-20T03:17:22.098Z,15.39
2023-03-20T03:18:30.085Z,15.37
2023-03-20T03:19:22.275Z,15.35
2023-03-20T03:20:22.150Z,15.35
2023-03-20T03:21:22.391Z,15.35
2023-03-20T03:22:30.351Z,15.35
2023-03-20T03:23:22.101Z,15.35
2023-03-20T03:24:37.411Z,15.35
2023-03-20T03:25:22.147Z,15.35
2023-03-20T03:26:22.428Z,15.34
2023-03-20T03:27:22.361Z,15.35
2023-03-20T03:28:21.868Z,15.38
2023-03-20T03:29:22.141Z,15.38
2023-03-20T03:30:22.499Z,15.37
2023-03-20T03:31:22.117Z,15.39
2023-03-20T03:32:22.485Z,15.39
2023-03-20T03:33:21.782Z,15.39
2023-03-20T03:34:21.485Z,15.39
2023-03-20T03:35:21.812Z,15.38
2023-03-20T03:36:21.957Z,15.38
2023-03-20T03:37:21.610Z,15.40
2023-03-20T03:38:21.507Z,15.39
2023-03-20T03:39:21.349Z,15.39
2023-03-20T03:40:21.756Z,15.40
2023-03-20T03:41:22.138Z,15.38
2023-03-20T03:42:22.532Z,15.39
2023-03-20T03:43:21.899Z,15.36
2023-03-20T03:44:21.548Z,15.35
2023-03-20T03:45:23.159Z,15.35
2023-03-20T03:46:21.977Z,15.38
2023-03-20T03:47:22.168Z,15.37
2023-03-20T03:48:22.428Z,15.35
2023-03-20T03:49:22.202Z,15.34
2023-03-20T03:50:22.160Z,15.31
2023-03-20T03:51:22.284Z,15.31
2023-03-20T03:52:21.652Z,15.30
2023-03-20T03:53:21.894Z,15.29
2023-03-20T03:54:21.942Z,15.25
2023-03-20T03:55:22.255Z,15.18
2023-03-20T03:56:22.334Z,15.10
2023-03-20T03:57:22.056Z,15.06
2023-03-20T03:58:21.736Z,15.03
2023-03-20T03:59:21.946Z,15.02
2023-03-20T04:00:23.263Z,15.02
2023-03-20T04:01:22.674Z,14.85
2023-03-20T04:02:22.327Z,14.81
2023-03-20T04:03:22.000Z,14.80
2023-03-20T04:04:22.642Z,14.81
2023-03-20T04:05:21.867Z,14.80
2023-03-20T04:06:21.950Z,14.78
2023-03-20T04:07:22.334Z,14.77
2023-03-20T04:08:22.444Z,14.75
2023-03-20T04:09:22.093Z,14.78
2023-03-20T04:10:22.724Z,14.77
2023-03-20T04:11:22.566Z,14.70
2023-03-20T04:12:22.102Z,14.69
2023-03-20T04:13:22.023Z,14.65
2023-03-20T04:14:22.217Z,14.63
2023-03-20T04:15:22.659Z,14.55
2023-03-20T04:16:22.386Z,14.56
2023-03-20T04:17:22.571Z,14.52
2023-03-20T04:18:22.271Z,14.51
2023-03-20T04:19:22.060Z,14.52
2023-03-20T04:20:22.378Z,14.56
2023-03-20T04:21:22.582Z,14.53
2023-03-20T04:22:22.291Z,14.47
2023-03-20T04:23:22.214Z,14.45
2023-03-20T04:24:22.165Z,14.45
2023-03-20T04:25:22.359Z,14.47
2023-03-20T04:26:21.583Z,14.47
2023-03-20T04:27:21.740Z,14.39
2023-03-20T04:28:22.030Z,14.41
2023-03-20T04:29:21.859Z,14.44
2023-03-20T04:30:22.446Z,14.36
2023-03-20T04:31:22.036Z,14.38
2023-03-20T04:32:22.262Z,14.30
2023-03-20T04:33:22.390Z,14.18
2023-03-20T04:34:21.657Z,14.24
2023-03-20T04:35:21.815Z,14.22
2023-03-20T04:36:21.919Z,14.23
2023-03-20T04:37:21.928Z,14.28
2023-03-20T04:38:22.052Z,14.32
2023-03-20T04:39:21.983Z,14.38
2023-03-20T04:40:22.214Z,14.38
2023-03-20T04:41:22.460Z,14.42
2023-03-20T04:42:21.936Z,14.46
2023-03-20T04:43:22.059Z,14.49
2023-03-20T04:44:21.809Z,14.52
2023-03-20T04:45:22.031Z,14.53
2023-03-20T04:46:22.374Z,14.57
2023-03-20T04:47:21.783Z,14.58
2023-03-20T04:48:21.954Z,14.60
2023-03-20T04:49:21.762Z,14.61
2023-03-20T04:50:22.625Z,14.65
2023-03-20T04:51:21.779Z,14.65
2023-03-20T04:52:22.321Z,14.65
2023-03-20T04:53:22.001Z,14.68
2023-03-20T04:54:21.927Z,14.69
2023-03-20T04:55:22.181Z,14.71
2023-03-20T04:56:22.049Z,14.69
2023-03-20T04:57:22.157Z,14.70
2023-03-20T04:58:22.275Z,14.72
2023-03-20T04:59:22.419Z,14.72
2023-03-20T05:00:23.605Z,14.73
2023-03-20T05:01:22.180Z,14.73
2023-03-20T05:02:22.180Z,14.74
2023-03-20T05:03:23.917Z,14.75
2023-03-20T05:04:22.381Z,14.75
2023-03-20T05:05:22.170Z,14.75
2023-03-20T05:06:21.846Z,14.75
2023-03-20T05:07:22.373Z,14.76
2023-03-20T05:08:21.727Z,14.75
2023-03-20T05:09:22.125Z,14.74
2023-03-20T05:10:22.338Z,14.74
2023-03-20T05:11:22.063Z,14.73
2023-03-20T05:12:22.525Z,14.75
2023-03-20T05:13:22.280Z,14.73
2023-03-20T05:14:22.608Z,14.76
2023-03-20T05:15:22.506Z,14.76
2023-03-20T05:16:22.348Z,14.75
2023-03-20T05:17:21.845Z,14.76
2023-03-20T05:18:22.064Z,14.74
2023-03-20T05:19:22.127Z,14.72
2023-03-20T05:20:22.418Z,14.73
2023-03-20T05:21:22.039Z,14.71
2023-03-20T05:22:22.988Z,14.71
2023-03-20T05:23:22.039Z,14.70
2023-03-20T05:24:22.094Z,14.66
2023-03-20T05:25:22.371Z,14.65
2023-03-20T05:26:21.916Z,14.64
2023-03-20T05:27:22.115Z,14.61
2023-03-20T05:28:22.029Z,14.61
2023-03-20T05:29:22.226Z,14.60
2023-03-20T05:30:24.014Z,14.59
2023-03-20T05:31:21.800Z,14.56
2023-03-20T05:32:21.820Z,14.56
2023-03-20T05:33:22.509Z,14.56
2023-03-20T05:34:22.036Z,14.55
2023-03-20T05:35:22.978Z,14.55
2023-03-20T05:36:22.063Z,14.54
2023-03-20T05:37:22.099Z,14.54
2023-03-20T05:38:22.182Z,14.55
2023-03-20T05:39:27.572Z,14.55
2023-03-20T05:40:22.623Z,14.53
2023-03-20T05:41:22.562Z,14.51
2023-03-20T05:42:21.861Z,14.50
2023-03-20T05:43:21.923Z,14.51
2023-03-20T05:44:21.708Z,14.51
2023-03-20T05:45:21.943Z,14.48
2023-03-20T05:46:21.742Z,14.48
2023-03-20T05:47:25.906Z,14.47
2023-03-20T05:48:22.056Z,14.49
2023-03-20T05:49:22.290Z,14.46
2023-03-20T05:50:22.046Z,14.48
2023-03-20T05:51:22.255Z,14.47
2023-03-20T05:52:22.351Z,14.44
2023-03-20T05:53:22.650Z,14.43
2023-03-20T05:54:22.106Z,14.44
2023-03-20T05:55:22.498Z,14.43
2023-03-20T05:56:23.148Z,14.43
2023-03-20T05:57:22.525Z,14.42
2023-03-20T05:58:21.854Z,14.43
2023-03-20T05:59:21.984Z,14.42
2023-03-20T06:00:23.497Z,14.42
2023-03-20T06:01:36.347Z,14.42
2023-03-20T06:02:22.247Z,14.42
2023-03-20T06:03:22.642Z,14.43
2023-03-20T06:04:22.385Z,14.42
2023-03-20T06:05:22.400Z,14.43
2023-03-20T06:06:22.432Z,14.41
2023-03-20T06:07:22.287Z,14.40
2023-03-20T06:08:21.834Z,14.42
2023-03-20T06:09:22.732Z,14.43
2023-03-20T06:10:22.914Z,14.42
2023-03-20T06:11:23.734Z,14.43
2023-03-20T06:12:23.184Z,14.43
2023-03-20T06:13:22.296Z,14.43
2023-03-20T06:14:21.923Z,14.43
2023-03-20T06:15:22.497Z,14.43
2023-03-20T06:16:22.435Z,14.44
2023-03-20T06:17:22.272Z,14.45
2023-03-20T06:18:23.361Z,14.43
2023-03-20T06:19:22.428Z,14.43
2023-03-20T06:20:22.234Z,14.45
2023-03-20T06:21:22.259Z,14.47
2023-03-20T06:22:22.129Z,14.44
2023-03-20T06:23:22.701Z,14.45
2023-03-20T06:24:22.255Z,14.47
2023-03-20T06:25:22.872Z,14.47
2023-03-20T06:26:22.356Z,14.46
2023-03-20T06:27:22.696Z,14.47
2023-03-20T06:28:22.356Z,14.49
2023-03-20T06:29:22.298Z,14.48
2023-03-20T06:30:22.506Z,14.51
2023-03-20T06:31:22.495Z,14.51
2023-03-20T06:32:22.260Z,14.52
2023-03-20T06:33:23.484Z,14.54
2023-03-20T06:34:23.473Z,14.56
2023-03-20T06:35:22.822Z,14.56
2023-03-20T06:36:22.288Z,14.57
2023-03-20T06:37:22.320Z,14.62
2023-03-20T06:38:22.587Z,14.63
2023-03-20T06:39:22.048Z,14.63
2023-03-20T06:40:22.870Z,14.65
2023-03-20T06:41:33.666Z,14.67
2023-03-20T06:42:21.840Z,14.69
2023-03-20T06:43:22.168Z,14.71
2023-03-20T06:44:22.440Z,14.71
2023-03-20T06:45:23.057Z,14.73
2023-03-20T06:46:21.969Z,14.75
2023-03-20T06:47:22.281Z,14.75
2023-03-20T06:48:21.914Z,14.80
2023-03-20T06:49:22.149Z,14.80
2023-03-20T06:50:22.126Z,14.76
2023-03-20T06:51:22.773Z,14.77
2023-03-20T06:52:23.924Z,14.79
2023-03-20T06:53:23.030Z,14.79
2023-03-20T06:54:22.796Z,14.82
2023-03-20T06:55:23.290Z,14.86
2023-03-20T06:56:22.417Z,14.87
2023-03-20T06:57:22.048Z,14.90
2023-03-20T06:58:22.033Z,14.91
2023-03-20T06:59:22.065Z,14.93
2023-03-20T07:00:25.388Z,14.94
2023-03-20T07:01:23.241Z,14.98
2023-03-20T07:02:23.552Z,14.99
2023-03-20T07:03:22.417Z,15.02
2023-03-20T07:04:22.052Z,15.02
2023-03-20T07:05:22.874Z,15.06
2023-03-20T07:06:22.774Z,15.09
2023-03-20T07:07:22.368Z,15.11
2023-03-20T07:08:22.047Z,15.15
2023-03-20T07:09:22.698Z,15.18
2023-03-20T07:10:22.782Z,15.22
2023-03-20T07:11:22.838Z,15.26
2023-03-20T07:12:22.224Z,15.27
2023-03-20T07:13:22.084Z,15.32
2023-03-20T07:14:22.319Z,15.36
2023-03-20T07:15:21.488Z,15.38
2023-03-20T07:16:22.226Z,15.43
2023-03-20T07:17:22.615Z,15.46
2023-03-20T07:18:22.272Z,15.51
2023-03-20T07:19:22.196Z,15.53
2023-03-20T07:20:22.531Z,15.53
2023-03-20T07:21:22.726Z,15.59
2023-03-20T07:22:22.393Z,15.60
2023-03-20T07:23:22.077Z,15.60
2023-03-20T07:24:22.241Z,15.61
2023-03-20T07:25:35.441Z,15.64
2023-03-20T07:26:22.929Z,15.57
2023-03-20T07:27:22.637Z,15.55
2023-03-20T07:28:22.570Z,15.63
2023-03-20T07:29:22.732Z,15.69
2023-03-20T07:30:24.220Z,15.73
2023-03-20T07:31:22.349Z,15.75
2023-03-20T07:32:22.413Z,15.71
2023-03-20T07:33:23.236Z,15.73
2023-03-20T07:34:22.994Z,15.73
2023-03-20T07:35:22.073Z,15.76
2023-03-20T07:36:22.593Z,15.78
2023-03-20T07:37:22.595Z,15.77
2023-03-20T07:38:21.970Z,15.78
2023-03-20T07:39:22.918Z,15.69
2023-03-20T07:40:23.155Z,15.65
2023-03-20T07:41:22.483Z,15.57
2023-03-20T07:42:22.475Z,15.55
2023-03-20T07:43:22.187Z,15.56
2023-03-20T07:44:22.348Z,15.55
2023-03-20T07:45:22.976Z,15.56
2023-03-20T07:46:22.621Z,15.50
2023-03-20T07:47:23.349Z,15.48
2023-03-20T07:48:22.813Z,15.53
2023-03-20T07:49:22.421Z,15.55
2023-03-20T07:50:23.578Z,15.53
2023-03-20T07:51:22.936Z,15.56
2023-03-20T07:52:22.258Z,15.57
2023-03-20T07:53:22.474Z,15.45
2023-03-20T07:54:22.457Z,15.49
2023-03-20T07:55:24.141Z,15.59
2023-03-20T07:56:22.487Z,15.63
2023-03-20T07:57:22.486Z,15.68
2023-03-20T07:58:27.596Z,15.65
2023-03-20T07:59:22.718Z,15.69
2023-03-20T08:00:25.225Z,15.72
2023-03-20T08:01:23.007Z,15.68
2023-03-20T08:02:22.477Z,15.72
2023-03-20T08:03:22.713Z,15.75
2023-03-20T08:04:22.218Z,15.77
2023-03-20T08:05:23.796Z,15.73
2023-03-20T08:06:22.690Z,15.76
2023-03-20T08:07:23.135Z,15.81
2023-03-20T08:08:22.945Z,15.80
2023-03-20T08:09:22.552Z,15.85
2023-03-20T08:10:23.748Z,15.88
2023-03-20T08:11:23.159Z,15.86
2023-03-20T08:12:22.320Z,15.86
2023-03-20T08:13:23.080Z,15.87
2023-03-20T08:14:23.210Z,15.88
2023-03-20T08:15:23.117Z,15.85
2023-03-20T08:16:23.138Z,15.87
2023-03-20T08:17:22.702Z,15.88
2023-03-20T08:18:22.536Z,15.74
2023-03-20T08:19:22.551Z,15.66
2023-03-20T08:20:22.237Z,15.72
2023-03-20T08:21:22.457Z,15.81
2023-03-20T08:22:22.310Z,15.85
2023-03-20T08:23:22.394Z,15.82
2023-03-20T08:24:35.988Z,15.80
2023-03-20T08:25:22.510Z,15.82
2023-03-20T08:26:22.424Z,15.86
2023-03-20T08:27:22.254Z,15.91
2023-03-20T08:28:21.934Z,15.96
2023-03-20T08:29:21.999Z,15.93
2023-03-20T08:30:22.689Z,15.98
2023-03-20T08:31:22.414Z,15.97
2023-03-20T08:32:22.096Z,15.97
2023-03-20T08:33:22.599Z,15.89
2023-03-20T08:34:24.129Z,15.87
2023-03-20T08:35:45.937Z,15.90
2023-03-20T08:36:22.703Z,15.97
2023-03-20T08:37:22.343Z,16
2023-03-20T08:38:22.219Z,15.97
2023-03-20T08:39:22.138Z,16.03
2023-03-20T08:40:22.100Z,16.04
2023-03-20T08:41:22.893Z,16.06
2023-03-20T08:42:41.237Z,16.12
2023-03-20T08:43:22.623Z,16.20
2023-03-20T08:44:22.970Z,16.21
2023-03-20T08:45:22.648Z,16.22
2023-03-20T08:46:22.554Z,16.27
2023-03-20T08:47:22.216Z,16.29
2023-03-20T08:48:44.405Z,16.34
2023-03-20T08:49:22.833Z,16.42
2023-03-20T08:50:22.880Z,16.44
2023-03-20T08:51:21.885Z,16.50
2023-03-20T08:52:22.772Z,16.55
2023-03-20T08:53:22.943Z,16.60
2023-03-20T08:54:22.376Z,16.63
2023-03-20T08:55:22.366Z,16.67
2023-03-20T08:56:23.127Z,16.73
2023-03-20T08:57:23.257Z,16.77
2023-03-20T08:58:22.916Z,16.82
2023-03-20T08:59:22.891Z,16.90
2023-03-20T09:00:24.546Z,16.93
2023-03-20T09:01:22.608Z,16.96
2023-03-20T09:02:22.780Z,16.99
2023-03-20T09:03:22.516Z,17.04
2023-03-20T09:04:22.402Z,17.07
2023-03-20T09:05:22.442Z,17.12
2023-03-20T09:06:22.671Z,17.14
2023-03-20T09:07:22.655Z,17.13
2023-03-20T09:08:22.389Z,17.14
2023-03-20T09:09:22.636Z,17.23
2023-03-20T09:10:23.223Z,17.27
2023-03-20T09:11:22.576Z,17.32
2023-03-20T09:12:22.271Z,17.32
2023-03-20T09:13:26.829Z,17.36
2023-03-20T09:14:22.387Z,17.42
2023-03-20T09:15:22.702Z,17.41
2023-03-20T09:16:22.415Z,17.44
2023-03-20T09:17:22.549Z,17.47
2023-03-20T09:18:22.877Z,17.52
2023-03-20T09:19:22.154Z,17.51
2023-03-20T09:20:22.739Z,17.51
2023-03-20T09:21:23.367Z,17.51
2023-03-20T09:22:22.453Z,17.48
2023-03-20T09:23:22.568Z,17.52
2023-03-20T09:24:22.727Z,17.57
2023-03-20T09:25:23.795Z,17.65
2023-03-20T09:26:22.522Z,17.60
2023-03-20T09:27:22.693Z,17.69
2023-03-20T09:28:22.811Z,17.73
2023-03-20T09:29:22.793Z,17.71
2023-03-20T09:30:23.376Z,17.70
2023-03-20T09:31:22.854Z,17.71
2023-03-20T09:32:22.798Z,17.70
2023-03-20T09:33:22.460Z,17.75
2023-03-20T09:34:22.329Z,17.71
2023-03-20T09:35:22.763Z,17.73
2023-03-20T09:36:22.867Z,17.71
2023-03-20T09:37:23.449Z,17.75
2023-03-20T09:38:22.358Z,17.76
2023-03-20T09:39:23.085Z,17.75
2023-03-20T09:40:23.050Z,17.70
2023-03-20T09:41:23.177Z,17.74
2023-03-20T09:42:23.432Z,17.82
2023-03-20T09:43:23.108Z,17.80
2023-03-20T09:44:22.513Z,17.77
2023-03-20T09:45:23.141Z,17.72
2023-03-20T09:46:22.854Z,17.71
2023-03-20T09:47:22.800Z,17.69
2023-03-20T09:48:23.343Z,17.71
2023-03-20T09:49:23.278Z,17.68
2023-03-20T09:50:23.819Z,17.63
2023-03-20T09:51:23.250Z,17.66
2023-03-20T09:52:23.011Z,17.71
2023-03-20T09:53:23.153Z,17.74
2023-03-20T09:54:23.052Z,17.78
2023-03-20T09:55:23.389Z,17.79
2023-03-20T09:56:23.381Z,17.81
2023-03-20T09:57:23.818Z,17.82
2023-03-20T09:58:23.514Z,17.82
2023-03-20T09:59:23.908Z,17.78
2023-03-20T10:00:25.154Z,17.77
2023-03-20T10:01:23.796Z,17.80
2023-03-20T10:02:23.880Z,17.79
2023-03-20T10:03:23.300Z,17.71
2023-03-20T10:04:23.263Z,17.70
2023-03-20T10:05:24.415Z,17.67
2023-03-20T10:06:23.546Z,17.65
2023-03-20T10:07:23.033Z,17.65
2023-03-20T10:08:23.257Z,17.62
2023-03-20T10:09:24.338Z,17.65
2023-03-20T10:10:24.262Z,17.65
2023-03-20T10:11:23.718Z,17.68
2023-03-20T10:12:23.893Z,17.68
2023-03-20T10:13:23.463Z,17.69
2023-03-20T10:14:24.648Z,17.72
2023-03-20T10:15:24.349Z,17.61
2023-03-20T10:16:23.330Z,17.63
2023-03-20T10:17:23.421Z,17.61
2023-03-20T10:18:24.000Z,17.62
2023-03-20T10:19:23.553Z,17.62
2023-03-20T10:20:23.715Z,17.63
2023-03-20T10:21:23.856Z,17.56
2023-03-20T10:22:22.790Z,17.54
2023-03-20T10:23:23.534Z,17.61
2023-03-20T10:24:23.275Z,17.62
2023-03-20T10:25:23.538Z,17.63
2023-03-20T10:26:23.415Z,17.68
2023-03-20T10:27:23.194Z,17.74
2023-03-20T10:28:23.334Z,17.83
2023-03-20T10:29:23.669Z,17.90
2023-03-20T10:30:24.150Z,17.94
2023-03-20T10:31:28.515Z,17.99
2023-03-20T10:32:23.772Z,18.01
2023-03-20T10:33:23.512Z,18
2023-03-20T10:34:23.820Z,18.01
2023-03-20T10:35:24.025Z,17.99
2023-03-20T10:36:23.080Z,18.04
2023-03-20T10:37:23.203Z,18.10
2023-03-20T10:38:23.399Z,18.13
2023-03-20T10:39:23.531Z,18.15
2023-03-20T10:40:23.720Z,18.06
2023-03-20T10:41:31.724Z,18.05
2023-03-20T10:42:23.234Z,18.13
2023-03-20T10:43:23.422Z,18.15
2023-03-20T10:44:22.797Z,18.10
2023-03-20T10:45:23.430Z,17.89
2023-03-20T10:46:23.225Z,17.96
2023-03-20T10:47:38.442Z,17.92
2023-03-20T10:48:23.521Z,17.91
2023-03-20T10:49:23.860Z,17.87
2023-03-20T10:50:23.754Z,17.94
2023-03-20T10:51:23.263Z,17.95
2023-03-20T10:52:23.092Z,17.95
2023-03-20T10:53:37.180Z,17.95
2023-03-20T10:54:23.571Z,17.91
2023-03-20T10:55:24.012Z,17.93
2023-03-20T10:56:23.875Z,17.95
2023-03-20T10:57:24.738Z,17.87
2023-03-20T10:58:24.902Z,17.83
2023-03-20T10:59:26.218Z,17.89
2023-03-20T11:00:25.591Z,17.88
2023-03-20T11:01:43.301Z,17.89
2023-03-20T11:02:24.109Z,17.83
2023-03-20T11:03:42.570Z,17.87
2023-03-20T11:04:24.262Z,17.86
2023-03-20T11:05:43.083Z,17.80
2023-03-20T11:06:23.700Z,17.72
2023-03-20T11:07:42.176Z,17.67
2023-03-20T11:08:23.783Z,17.68
2023-03-20T11:09:43.247Z,17.73
2023-03-20T11:10:24.590Z,17.71
2023-03-20T11:11:24.629Z,17.73
2023-03-20T11:12:24.325Z,17.71
2023-03-20T11:13:45.973Z,17.73
2023-03-20T11:14:24.044Z,17.73
2023-03-20T11:15:23.625Z,17.67
2023-03-20T11:16:23.291Z,17.61
2023-03-20T11:17:23.988Z,17.65
2023-03-20T11:18:23.644Z,17.69
2023-03-20T11:19:23.332Z,17.64
2023-03-20T11:20:23.870Z,17.61
2023-03-20T11:21:23.748Z,17.60
2023-03-20T11:22:23.599Z,17.54
2023-03-20T11:23:23.318Z,17.53
2023-03-20T11:24:23.569Z,17.54
2023-03-20T11:25:23.839Z,17.51
2023-03-20T11:26:23.533Z,17.54
2023-03-20T11:27:23.651Z,17.54
2023-03-20T11:28:23.738Z,17.48
2023-03-20T11:29:23.830Z,17.43
2023-03-20T11:30:22.891Z,17.44
2023-03-20T11:31:23.687Z,17.46
2023-03-20T11:32:22.944Z,17.46
2023-03-20T11:33:23.318Z,17.47
2023-03-20T11:34:23.138Z,17.48
2023-03-20T11:35:23.134Z,17.52
2023-03-20T11:36:25.878Z,17.60
2023-03-20T11:37:23.206Z,17.65
2023-03-20T11:38:23.086Z,17.64
2023-03-20T11:39:23.279Z,17.68
2023-03-20T11:40:23.223Z,17.75
2023-03-20T11:41:23.551Z,17.73
2023-03-20T11:42:23.395Z,17.70
2023-03-20T11:43:23.069Z,17.71
2023-03-20T11:44:23.185Z,17.69
2023-03-20T11:45:23.187Z,17.77
2023-03-20T11:46:23.583Z,17.79
2023-03-20T11:47:23.907Z,17.88
2023-03-20T11:48:23.275Z,17.98
2023-03-20T11:49:22.816Z,18.02
2023-03-20T11:50:23.868Z,18.08
2023-03-20T11:51:23.792Z,18.19
2023-03-20T11:52:22.911Z,18.28
2023-03-20T11:53:23.553Z,18.33
2023-03-20T11:54:23.501Z,18.38
2023-03-20T11:55:24.247Z,18.40
2023-03-20T11:56:23.453Z,18.42
2023-03-20T11:57:23.142Z,18.37
2023-03-20T11:58:23.517Z,18.37
2023-03-20T11:59:23.203Z,18.37
2023-03-20T12:00:23.953Z,18.40
2023-03-20T12:01:24.210Z,18.38
2023-03-20T12:02:22.800Z,18.33
2023-03-20T12:03:23.160Z,18.18
2023-03-20T12:04:23.356Z,18.05
2023-03-20T12:05:23.358Z,18.11
2023-03-20T12:06:23.246Z,18.09
2023-03-20T12:07:23.012Z,18.09
2023-03-20T12:08:23.580Z,18.04
2023-03-20T12:09:23.625Z,18.06
2023-03-20T12:10:23.688Z,18.10
2023-03-20T12:11:23.875Z,18.05
2023-03-20T12:12:23.657Z,18.07
2023-03-20T12:13:23.588Z,18.04
2023-03-20T12:14:23.461Z,18.01
2023-03-20T12:15:23.554Z,18.04
2023-03-20T12:16:23.393Z,17.86
2023-03-20T12:17:23.289Z,17.59
2023-03-20T12:18:23.202Z,17.65
2023-03-20T12:19:22.842Z,17.60
2023-03-20T12:20:23.732Z,17.63
2023-03-20T12:21:23.069Z,17.67
2023-03-20T12:22:23.185Z,17.62
2023-03-20T12:23:23.320Z,17.59
2023-03-20T12:24:23.029Z,17.57
2023-03-20T12:25:23.404Z,17.62
2023-03-20T12:26:22.721Z,17.68
2023-03-20T12:27:22.934Z,17.69
2023-03-20T12:28:23.248Z,17.71
2023-03-20T12:29:22.510Z,17.78
2023-03-20T12:30:23.006Z,17.85
2023-03-20T12:31:23.444Z,17.95
2023-03-20T12:32:23.255Z,18.06
2023-03-20T12:33:22.789Z,18.15
2023-03-20T12:34:24.518Z,18.14
2023-03-20T12:35:24.846Z,18.17
2023-03-20T12:36:24.306Z,18.18
2023-03-20T12:37:23.119Z,18.20
2023-03-20T12:38:22.925Z,18.15
2023-03-20T12:39:23.743Z,18.16
2023-03-20T12:40:23.137Z,18.14
2023-03-20T12:41:24.265Z,18.14
2023-03-20T12:42:23.504Z,18.07
2023-03-20T12:43:23.449Z,18.08
2023-03-20T12:44:24.203Z,18.08
2023-03-20T12:45:23.942Z,18.13
2023-03-20T12:46:23.592Z,18.12
2023-03-20T12:47:23.079Z,18.12
2023-03-20T12:48:23.554Z,18.06
2023-03-20T12:49:23.574Z,18.05
2023-03-20T12:50:28.567Z,18.05
2023-03-20T12:51:24.267Z,18.11
2023-03-20T12:52:28.301Z,18.15
2023-03-20T12:53:23.467Z,18.17
2023-03-20T12:54:23.441Z,18.18